createdAt,value
2018-09-12T00:00:06.304Z,87.85
2018-09-12T00:01:06.305Z,88.14
2018-09-12T00:02:06.309Z,88.14
2018-09-12T00:03:06.310Z,88.04
2018-09-12T00:04:06.315Z,88.24
2018-09-12T00:05:06.314Z,88.43
2018-09-12T00:06:06.317Z,88.62
2018-09-12T00:07:06.321Z,88.14
2018-09-12T00:08:06.322Z,88.33
2018-09-12T00:09:06.324Z,88.33
2018-09-12T00:10:06.326Z,88.14
2018-09-12T00:11:06.329Z,88.10
2018-09-12T00:12:06.331Z,88.10
2018-09-12T00:13:06.333Z,88.10
2018-09-12T00:14:06.336Z,88.00
2018-09-12T00:15:06.341Z,88.10
2018-09-12T00:16:06.341Z,88.19
2018-09-12T00:17:06.344Z,88.10
2018-09-12T00:18:06.344Z,88.48
2018-09-12T00:19:06.349Z,87.90
2018-09-12T00:20:06.349Z,88.10
2018-09-12T00:21:06.364Z,87.71
2018-09-12T00:22:06.356Z,88.00
2018-09-12T00:23:06.356Z,87.81
2018-09-12T00:24:06.359Z,88.10
2018-09-12T00:25:06.360Z,88.06
2018-09-12T00:26:06.363Z,88.53
2018-09-12T00:27:06.365Z,88.24
2018-09-12T00:28:06.370Z,87.38
2018-09-12T00:29:06.369Z,87.76
2018-09-12T00:30:06.372Z,88.24
2018-09-12T00:31:06.374Z,87.86
2018-09-12T00:32:06.377Z,87.67
2018-09-12T00:33:06.378Z,87.86
2018-09-12T00:34:06.380Z,87.96
2018-09-12T00:35:06.382Z,88.06
2018-09-12T00:36:06.385Z,88.15
2018-09-12T00:37:06.387Z,88.15
2018-09-12T00:38:06.392Z,87.86
2018-09-12T00:39:06.391Z,87.86
2018-09-12T00:40:06.394Z,88.15
2018-09-12T00:41:06.395Z,87.76
2018-09-12T00:42:06.398Z,87.38
2018-09-12T00:43:06.399Z,87.48
2018-09-12T00:44:06.403Z,87.29
2018-09-12T00:45:06.408Z,87.29
2018-09-12T00:46:06.404Z,87.48
2018-09-12T00:47:06.406Z,87.38
2018-09-12T00:48:06.409Z,87.33
2018-09-12T00:49:06.410Z,87.48
2018-09-12T00:50:06.419Z,87.48
2018-09-12T00:51:06.415Z,87.42
2018-09-12T00:52:06.418Z,87.57
2018-09-12T00:53:06.418Z,87.48
2018-09-12T00:54:06.421Z,87.19
2018-09-12T00:55:06.422Z,86.99
2018-09-12T00:56:06.426Z,86.94
2018-09-12T00:57:06.426Z,87.09
2018-09-12T00:58:06.429Z,87.19
2018-09-12T00:59:06.429Z,86.94
2018-09-12T01:00:06.431Z,86.80
2018-09-12T01:01:06.432Z,86.85
2018-09-12T01:02:06.435Z,86.85
2018-09-12T01:03:06.437Z,86.65
2018-09-12T01:04:06.441Z,86.46
2018-09-12T01:05:06.440Z,86.46
2018-09-12T01:06:06.444Z,86.75
2018-09-12T01:07:06.445Z,86.94
2018-09-12T01:08:06.447Z,86.46
2018-09-12T01:09:06.448Z,87.23
2018-09-12T01:10:06.451Z,86.94
2018-09-12T01:11:06.453Z,86.36
2018-09-12T01:12:06.456Z,86.65
2018-09-12T01:13:06.457Z,86.85
2018-09-12T01:14:06.459Z,86.71
2018-09-12T01:15:06.461Z,86.75
2018-09-12T01:16:06.464Z,86.75
2018-09-12T01:17:06.463Z,86.94
2018-09-12T01:18:06.467Z,86.46
2018-09-12T01:19:06.468Z,86.85
2018-09-12T01:20:06.474Z,86.65
2018-09-12T01:21:06.471Z,86.85
2018-09-12T01:22:06.474Z,86.65
2018-09-12T01:23:06.480Z,86.46
2018-09-12T01:24:06.477Z,86.27
2018-09-12T01:25:06.480Z,86.46
2018-09-12T01:26:06.482Z,86.08
2018-09-12T01:27:06.483Z,86.08
2018-09-12T01:28:06.487Z,86.36
2018-09-12T01:29:06.487Z,86.18
2018-09-12T01:30:06.488Z,86.46
2018-09-12T01:31:06.490Z,86.27
2018-09-12T01:32:06.493Z,86.27
2018-09-12T01:33:06.494Z,85.98
2018-09-12T01:34:06.502Z,85.69
2018-09-12T01:35:06.499Z,85.78
2018-09-12T01:36:06.501Z,86.27
2018-09-12T01:37:06.503Z,85.88
2018-09-12T01:38:06.503Z,86.08
2018-09-12T01:39:06.507Z,85.69
2018-09-12T01:40:06.507Z,85.60
2018-09-12T01:41:06.509Z,85.50
2018-09-12T01:42:06.512Z,85.69
2018-09-12T01:43:06.514Z,85.69
2018-09-12T01:44:06.516Z,85.60
2018-09-12T01:45:06.518Z,85.88
2018-09-12T01:46:06.519Z,85.98
2018-09-12T01:47:06.522Z,85.69
2018-09-12T01:48:06.523Z,85.36
2018-09-12T01:49:06.524Z,84.92
2018-09-12T01:50:06.527Z,85.11
2018-09-12T01:51:06.529Z,85.40
2018-09-12T01:52:06.531Z,85.40
2018-09-12T01:53:06.531Z,84.92
2018-09-12T01:54:06.537Z,85.11
2018-09-12T01:55:06.536Z,85.21
2018-09-12T01:56:06.537Z,84.88
2018-09-12T01:57:06.540Z,84.40
2018-09-12T01:58:06.541Z,84.59
2018-09-12T01:59:06.543Z,84.40
2018-09-12T02:00:06.546Z,84.30
2018-09-12T02:01:06.547Z,83.83
2018-09-12T02:02:06.548Z,84.11
2018-09-12T02:03:06.550Z,84.11
2018-09-12T02:04:06.552Z,84.30
2018-09-12T02:05:06.556Z,84.30
2018-09-12T02:06:06.554Z,84.40
2018-09-12T02:07:06.557Z,84.30
2018-09-12T02:08:06.562Z,83.73
2018-09-12T02:09:06.561Z,83.83
2018-09-12T02:10:06.561Z,83.83
2018-09-12T02:11:06.565Z,83.63
2018-09-12T02:12:06.565Z,83.53
2018-09-12T02:13:06.567Z,84.30
2018-09-12T02:14:06.568Z,83.83
2018-09-12T02:15:06.571Z,83.44
2018-09-12T02:16:06.573Z,83.63
2018-09-12T02:17:06.575Z,83.53
2018-09-12T02:18:06.575Z,83.92
2018-09-12T02:19:06.578Z,83.53
2018-09-12T02:20:06.581Z,83.83
2018-09-12T02:21:06.582Z,83.44
2018-09-12T02:22:06.583Z,83.92
2018-09-12T02:23:06.585Z,83.83
2018-09-12T02:24:06.587Z,83.63
2018-09-12T02:25:06.588Z,83.63
2018-09-12T02:26:06.590Z,83.53
2018-09-12T02:27:06.592Z,83.63
2018-09-12T02:28:06.594Z,83.44
2018-09-12T02:29:06.596Z,83.83
2018-09-12T02:30:06.596Z,83.83
2018-09-12T02:31:06.599Z,83.53
2018-09-12T02:32:06.602Z,83.34
2018-09-12T02:33:06.603Z,83.73
2018-09-12T02:34:06.604Z,83.53
2018-09-12T02:35:06.607Z,83.25
2018-09-12T02:36:06.613Z,83.73
2018-09-12T02:37:06.613Z,83.06
2018-09-12T02:38:06.612Z,83.06
2018-09-12T02:39:06.613Z,83.73
2018-09-12T02:40:06.614Z,83.44
2018-09-12T02:41:06.617Z,83.53
2018-09-12T02:42:06.618Z,83.83
2018-09-12T02:43:06.620Z,83.06
2018-09-12T02:44:06.623Z,83.73
2018-09-12T02:45:06.624Z,83.63
2018-09-12T02:46:06.624Z,83.63
2018-09-12T02:47:06.627Z,83.63
2018-09-12T02:48:06.630Z,83.53
2018-09-12T02:49:06.630Z,83.63
2018-09-12T02:50:06.633Z,83.44
2018-09-12T02:51:06.634Z,83.44
2018-09-12T02:52:06.637Z,83.34
2018-09-12T02:53:06.639Z,83.25
2018-09-12T02:54:06.640Z,83.44
2018-09-12T02:55:06.642Z,83.63
2018-09-12T02:56:06.644Z,83.44
2018-09-12T02:57:06.644Z,83.53
2018-09-12T02:58:06.650Z,83.53
2018-09-12T02:59:06.649Z,83.25
2018-09-12T03:00:06.654Z,83.25
2018-09-12T03:01:06.652Z,83.25
2018-09-12T03:02:06.653Z,82.86
2018-09-12T03:03:06.654Z,82.57
2018-09-12T03:04:06.658Z,83.06
2018-09-12T03:05:06.658Z,82.48
2018-09-12T03:06:06.660Z,82.86
2018-09-12T03:07:06.663Z,82.19
2018-09-12T03:08:06.665Z,82.57
2018-09-12T03:09:06.665Z,82.19
2018-09-12T03:10:06.667Z,82.38
2018-09-12T03:11:06.673Z,82.38
2018-09-12T03:12:06.674Z,82.48
2018-09-12T03:13:06.671Z,82.19
2018-09-12T03:14:06.674Z,81.81
2018-09-12T03:15:06.674Z,82.29
2018-09-12T03:16:06.678Z,82.34
2018-09-12T03:17:06.679Z,81.38
2018-09-12T03:18:06.680Z,81.52
2018-09-12T03:19:06.682Z,81.67
2018-09-12T03:20:06.685Z,81.48
2018-09-12T03:21:06.889Z,81.96
2018-09-12T03:22:06.687Z,81.96
2018-09-12T03:23:06.689Z,81.48
2018-09-12T03:24:06.692Z,81.38
2018-09-12T03:25:06.692Z,80.90
2018-09-12T03:26:06.694Z,80.80
2018-09-12T03:27:06.695Z,80.90
2018-09-12T03:28:06.697Z,80.61
2018-09-12T03:29:06.697Z,80.61
2018-09-12T03:30:06.700Z,80.90
2018-09-12T03:31:06.701Z,80.32
2018-09-12T03:32:06.711Z,80.71
2018-09-12T03:33:06.703Z,80.71
2018-09-12T03:34:06.707Z,79.94
2018-09-12T03:35:06.706Z,80.42
2018-09-12T03:36:06.710Z,80.32
2018-09-12T03:37:06.710Z,79.84
2018-09-12T03:38:06.718Z,80.13
2018-09-12T03:39:06.714Z,80.13
2018-09-12T03:40:06.715Z,79.55
2018-09-12T03:41:06.715Z,79.65
2018-09-12T03:42:06.718Z,79.55
2018-09-12T03:43:06.719Z,79.27
2018-09-12T03:44:06.726Z,79.46
2018-09-12T03:45:06.722Z,79.46
2018-09-12T03:46:06.724Z,79.75
2018-09-12T03:47:06.726Z,79.65
2018-09-12T03:48:06.756Z,79.55
2018-09-12T03:49:06.727Z,79.36
2018-09-12T03:50:06.730Z,79.55
2018-09-12T03:51:06.732Z,79.36
2018-09-12T03:52:06.732Z,78.59
2018-09-12T03:53:06.732Z,79.07
2018-09-12T03:54:06.733Z,78.94
2018-09-12T03:55:06.737Z,78.45
2018-09-12T03:56:06.739Z,78.59
2018-09-12T03:57:06.739Z,78.21
2018-09-12T03:58:06.742Z,78.08
2018-09-12T03:59:06.743Z,78.02
2018-09-12T04:00:06.743Z,77.40
2018-09-12T04:01:06.749Z,77.63
2018-09-12T04:02:06.745Z,77.40
2018-09-12T04:03:06.747Z,77.78
2018-09-12T04:04:06.749Z,77.73
2018-09-12T04:05:06.750Z,77.34
2018-09-12T04:06:06.752Z,77.44
2018-09-12T04:07:06.752Z,77.63
2018-09-12T04:08:06.755Z,77.34
2018-09-12T04:09:06.755Z,77.92
2018-09-12T04:10:06.756Z,76.67
2018-09-12T04:11:06.761Z,77.01
2018-09-12T04:12:06.760Z,76.48
2018-09-12T04:13:06.760Z,76.67
2018-09-12T04:14:06.762Z,75.52
2018-09-12T04:15:06.764Z,75.71
2018-09-12T04:16:06.765Z,75.42
2018-09-12T04:17:06.767Z,73.50
2018-09-12T04:18:06.768Z,71.29
2018-09-12T04:19:06.768Z,69.75
2018-09-12T04:20:06.770Z,69.66
2018-09-12T04:21:06.770Z,69.46
2018-09-12T04:22:06.774Z,68.98
2018-09-12T04:23:06.773Z,68.79
2018-09-12T04:24:06.845Z,68.70
2018-09-12T04:25:06.776Z,68.98
2018-09-12T04:26:06.777Z,68.12
2018-09-12T04:27:06.778Z,68.02
2018-09-12T04:28:06.779Z,68.51
2018-09-12T04:29:06.781Z,68.02
2018-09-12T04:30:06.785Z,68.41
2018-09-12T04:31:06.786Z,68.79
2018-09-12T04:32:06.784Z,68.21
2018-09-12T04:33:06.786Z,68.51
2018-09-12T04:34:06.786Z,68.31
2018-09-12T04:35:06.788Z,68.21
2018-09-12T04:36:06.789Z,68.21
2018-09-12T04:37:06.790Z,68.31
2018-09-12T04:38:06.831Z,68.31
2018-09-12T04:39:06.798Z,68.41
2018-09-12T04:40:06.795Z,68.41
2018-09-12T04:41:06.795Z,68.60
2018-09-12T04:42:06.798Z,68.51
2018-09-12T04:43:06.798Z,68.12
2018-09-12T04:44:06.800Z,68.12
2018-09-12T04:45:06.800Z,68.51
2018-09-12T04:46:06.801Z,68.41
2018-09-12T04:47:06.802Z,68.41
2018-09-12T04:48:06.804Z,68.41
2018-09-12T04:49:06.804Z,68.70
2018-09-12T04:50:06.809Z,68.70
2018-09-12T04:51:06.807Z,68.51
2018-09-12T04:52:06.809Z,68.12
2018-09-12T04:53:06.810Z,68.31
2018-09-12T04:54:06.812Z,68.12
2018-09-12T04:55:06.813Z,68.21
2018-09-12T04:56:06.813Z,68.51
2018-09-12T04:57:06.816Z,68.12
2018-09-12T04:58:06.818Z,68.79
2018-09-12T04:59:06.817Z,68.98
2018-09-12T05:00:06.828Z,69.37
2018-09-12T05:01:06.822Z,68.89
2018-09-12T05:02:06.821Z,68.60
2018-09-12T05:03:06.824Z,69.27
2018-09-12T05:04:06.823Z,69.18
2018-09-12T05:05:06.826Z,68.70
2018-09-12T05:06:06.826Z,68.21
2018-09-12T05:07:06.829Z,68.41
2018-09-12T05:08:06.828Z,68.51
2018-09-12T05:09:06.830Z,68.70
2018-09-12T05:10:06.883Z,68.41
2018-09-12T05:11:06.833Z,68.51
2018-09-12T05:12:06.835Z,68.51
2018-09-12T05:13:06.835Z,67.93
2018-09-12T05:14:06.837Z,68.60
2018-09-12T05:15:06.840Z,68.41
2018-09-12T05:16:06.901Z,68.31
2018-09-12T05:17:06.840Z,67.83
2018-09-12T05:18:06.842Z,67.74
2018-09-12T05:19:06.843Z,67.45
2018-09-12T05:20:06.845Z,67.07
2018-09-12T05:21:06.847Z,66.58
2018-09-12T05:22:06.851Z,66.68
2018-09-12T05:23:06.847Z,65.91
2018-09-12T05:24:06.852Z,66.58
2018-09-12T05:25:06.849Z,65.62
2018-09-12T05:26:06.852Z,65.23
2018-09-12T05:27:06.853Z,66.00
2018-09-12T05:28:06.856Z,65.05
2018-09-12T05:29:06.858Z,65.23
2018-09-12T05:30:06.858Z,65.53
2018-09-12T05:31:06.858Z,65.43
2018-09-12T05:32:06.861Z,65.33
2018-09-12T05:33:06.861Z,65.23
2018-09-12T05:34:06.861Z,65.05
2018-09-12T05:35:06.864Z,65.05
2018-09-12T05:36:06.865Z,65.62
2018-09-12T05:37:06.868Z,65.72
2018-09-12T05:38:06.867Z,65.43
2018-09-12T05:39:06.869Z,65.91
2018-09-12T05:40:06.870Z,66.10
2018-09-12T05:41:06.871Z,65.81
2018-09-12T05:42:06.871Z,65.62
2018-09-12T05:43:06.874Z,65.05
2018-09-12T05:44:06.875Z,65.23
2018-09-12T05:45:06.874Z,65.05
2018-09-12T05:46:06.878Z,64.76
2018-09-12T05:47:06.877Z,64.76
2018-09-12T05:48:06.882Z,65.05
2018-09-12T05:49:06.880Z,65.05
2018-09-12T05:50:06.898Z,64.95
2018-09-12T05:51:06.882Z,64.95
2018-09-12T05:52:06.893Z,64.85
2018-09-12T05:53:06.885Z,65.05
2018-09-12T05:54:06.885Z,64.56
2018-09-12T05:55:06.886Z,64.66
2018-09-12T05:56:06.889Z,64.28
2018-09-12T05:57:06.890Z,65.14
2018-09-12T05:58:06.892Z,64.66
2018-09-12T05:59:06.893Z,64.56
2018-09-12T06:00:06.897Z,64.37
2018-09-12T06:01:06.895Z,64.47
2018-09-12T06:02:06.898Z,64.37
2018-09-12T06:03:06.897Z,64.66
2018-09-12T06:04:06.899Z,64.66
2018-09-12T06:05:06.899Z,64.56
2018-09-12T06:06:06.900Z,65.14
2018-09-12T06:07:07.045Z,65.05
2018-09-12T06:08:06.902Z,64.47
2018-09-12T06:09:06.903Z,65.05
2018-09-12T06:10:06.905Z,64.76
2018-09-12T06:11:06.907Z,64.76
2018-09-12T06:12:06.908Z,65.33
2018-09-12T06:13:06.909Z,65.62
2018-09-12T06:14:06.991Z,65.62
2018-09-12T06:15:06.911Z,66.04
2018-09-12T06:16:06.914Z,66.10
2018-09-12T06:17:06.915Z,66.30
2018-09-12T06:18:06.945Z,66.20
2018-09-12T06:19:06.917Z,66.00
2018-09-12T06:20:06.918Z,66.30
2018-09-12T06:21:06.920Z,66.10
2018-09-12T06:22:06.923Z,66.39
2018-09-12T06:23:06.924Z,66.00
2018-09-12T06:24:06.925Z,66.30
2018-09-12T06:25:06.925Z,66.49
2018-09-12T06:26:06.926Z,66.00
2018-09-12T06:27:06.927Z,66.20
2018-09-12T06:28:06.930Z,66.30
2018-09-12T06:29:06.931Z,65.62
2018-09-12T06:30:06.932Z,66.20
2018-09-12T06:31:06.933Z,65.62
2018-09-12T06:32:06.934Z,66.10
2018-09-12T06:33:06.934Z,65.91
2018-09-12T06:34:06.935Z,65.91
2018-09-12T06:35:06.938Z,65.33
2018-09-12T06:36:06.939Z,65.17
2018-09-12T06:37:06.941Z,64.95
2018-09-12T06:38:06.940Z,65.33
2018-09-12T06:39:06.944Z,64.76
2018-09-12T06:40:06.943Z,64.47
2018-09-12T06:41:06.946Z,64.56
2018-09-12T06:42:06.946Z,64.37
2018-09-12T06:43:06.948Z,64.18
2018-09-12T06:44:06.950Z,64.37
2018-09-12T06:45:06.951Z,64.09
2018-09-12T06:46:06.952Z,64.37
2018-09-12T06:47:06.955Z,63.89
2018-09-12T06:48:06.956Z,63.54
2018-09-12T06:49:06.956Z,64.50
2018-09-12T06:50:06.957Z,64.02
2018-09-12T06:51:06.959Z,64.02
2018-09-12T06:52:06.961Z,64.60
2018-09-12T06:53:06.961Z,64.02
2018-09-12T06:54:06.962Z,64.60
2018-09-12T06:55:06.964Z,64.60
2018-09-12T06:56:06.965Z,64.50
2018-09-12T06:57:06.965Z,65.46
2018-09-12T06:58:06.970Z,65.30
2018-09-12T06:59:06.970Z,65.97
2018-09-12T07:00:06.973Z,66.74
2018-09-12T07:01:07.024Z,66.07
2018-09-12T07:02:06.974Z,66.07
2018-09-12T07:03:06.976Z,66.20
2018-09-12T07:04:06.983Z,66.65
2018-09-12T07:05:06.980Z,65.78
2018-09-12T07:06:06.984Z,65.50
2018-09-12T07:07:06.984Z,65.59
2018-09-12T07:08:06.985Z,64.82
2018-09-12T07:09:06.986Z,64.82
2018-09-12T07:10:06.988Z,63.76
2018-09-12T07:11:06.994Z,63.38
2018-09-12T07:12:06.992Z,64.53
2018-09-12T07:13:06.995Z,64.34
2018-09-12T07:14:07.030Z,64.63
2018-09-12T07:15:06.998Z,63.95
2018-09-12T07:16:07.001Z,63.95
2018-09-12T07:17:07.004Z,64.05
2018-09-12T07:18:07.013Z,64.05
2018-09-12T07:19:07.006Z,64.43
2018-09-12T07:20:07.008Z,64.43
2018-09-12T07:21:07.008Z,64.63
2018-09-12T07:22:07.011Z,64.73
2018-09-12T07:23:07.013Z,64.73
2018-09-12T07:24:07.015Z,64.34
2018-09-12T07:25:07.018Z,63.54
2018-09-12T07:26:07.020Z,63.76
2018-09-12T07:27:07.021Z,63.76
2018-09-12T07:28:07.026Z,63.57
2018-09-12T07:29:07.025Z,63.57
2018-09-12T07:30:07.028Z,63.95
2018-09-12T07:31:07.031Z,63.57
2018-09-12T07:32:07.031Z,63.86
2018-09-12T07:33:07.033Z,63.57
2018-09-12T07:34:07.036Z,63.86
2018-09-12T07:35:07.037Z,63.76
2018-09-12T07:36:07.042Z,63.28
2018-09-12T07:37:07.041Z,63.99
2018-09-12T07:38:07.043Z,64.56
2018-09-12T07:39:07.047Z,64.28
2018-09-12T07:40:07.049Z,64.47
2018-09-12T07:41:07.050Z,63.60
2018-09-12T07:42:07.052Z,63.48
2018-09-12T07:43:07.056Z,63.09
2018-09-12T07:44:07.056Z,63.09
2018-09-12T07:45:07.061Z,63.79
2018-09-12T07:46:07.061Z,63.89
2018-09-12T07:47:07.065Z,63.41
2018-09-12T07:48:07.067Z,63.79
2018-09-12T07:49:07.071Z,63.31
2018-09-12T07:50:07.072Z,63.51
2018-09-12T07:51:07.077Z,64.66
2018-09-12T07:52:07.077Z,64.47
2018-09-12T07:53:07.079Z,64.37
2018-09-12T07:54:07.086Z,64.47
2018-09-12T07:55:07.115Z,64.56
2018-09-12T07:56:07.159Z,65.43
2018-09-12T07:57:07.088Z,65.37
2018-09-12T07:58:07.090Z,66.14
2018-09-12T07:59:07.092Z,65.75
2018-09-12T08:00:07.143Z,65.37
2018-09-12T08:01:07.098Z,65.85
2018-09-12T08:02:07.100Z,66.24
2018-09-12T08:03:07.102Z,67.19
2018-09-12T08:04:07.156Z,67.33
2018-09-12T08:05:07.116Z,68.06
2018-09-12T08:06:07.116Z,67.19
2018-09-12T08:07:07.115Z,66.04
2018-09-12T08:08:07.117Z,66.14
2018-09-12T08:09:07.119Z,66.04
2018-09-12T08:10:07.122Z,65.43
2018-09-12T08:11:07.125Z,65.24
2018-09-12T08:12:07.184Z,65.63
2018-09-12T08:13:07.131Z,66.14
2018-09-12T08:14:07.134Z,67.10
2018-09-12T08:15:07.138Z,66.81
2018-09-12T08:16:07.139Z,67.49
2018-09-12T08:17:07.171Z,66.52
2018-09-12T08:18:07.144Z,67.29
2018-09-12T08:19:07.174Z,67.61
2018-09-12T08:20:07.151Z,68.38
2018-09-12T08:21:07.152Z,69.77
2018-09-12T08:22:07.155Z,69.83
2018-09-12T08:23:07.159Z,69.57
2018-09-12T08:24:07.161Z,72.02
2018-09-12T08:25:07.164Z,72.31
2018-09-12T08:26:07.175Z,71.60
2018-09-12T08:27:07.173Z,71.41
2018-09-12T08:28:07.174Z,70.54
2018-09-12T08:29:07.176Z,70.25
2018-09-12T08:30:07.180Z,70.83
2018-09-12T08:31:07.184Z,70.83
2018-09-12T08:32:07.191Z,71.28
2018-09-12T08:33:07.189Z,70.21
2018-09-12T08:34:07.194Z,71.47
2018-09-12T08:35:07.196Z,71.12
2018-09-12T08:36:07.199Z,70.60
2018-09-12T08:37:07.203Z,70.50
2018-09-12T08:38:07.206Z,70.89
2018-09-12T08:39:07.212Z,70.70
2018-09-12T08:40:07.212Z,69.93
2018-09-12T08:41:07.216Z,70.70
2018-09-12T08:42:07.241Z,70.31
2018-09-12T08:43:07.225Z,70.60
2018-09-12T08:44:07.226Z,70.60
2018-09-12T08:45:07.229Z,70.60
2018-09-12T08:46:07.232Z,72.18
2018-09-12T08:47:07.234Z,73.62
2018-09-12T08:48:07.239Z,73.85
2018-09-12T08:49:07.241Z,74.43
2018-09-12T08:50:07.244Z,74.24
2018-09-12T08:51:07.249Z,73.82
2018-09-12T08:52:07.253Z,73.53
2018-09-12T08:53:07.256Z,73.43
2018-09-12T08:54:07.259Z,73.33
2018-09-12T08:55:07.262Z,73.33
2018-09-12T08:56:07.267Z,72.85
2018-09-12T08:57:07.269Z,72.53
2018-09-12T08:58:07.272Z,72.81
2018-09-12T08:59:07.276Z,72.91
2018-09-12T09:00:07.309Z,71.85
2018-09-12T09:01:07.300Z,71.28
2018-09-12T09:02:07.285Z,70.79
2018-09-12T09:03:07.291Z,71.08
2018-09-12T09:04:07.352Z,71.28
2018-09-12T09:05:07.296Z,71.56
2018-09-12T09:06:07.299Z,72.24
2018-09-12T09:07:07.302Z,71.56
2018-09-12T09:08:07.355Z,71.56
2018-09-12T09:09:07.309Z,71.37
2018-09-12T09:10:07.312Z,71.47
2018-09-12T09:11:07.319Z,71.37
2018-09-12T09:12:07.320Z,71.66
2018-09-12T09:13:07.321Z,71.95
2018-09-12T09:14:07.327Z,72.43
2018-09-12T09:15:07.328Z,73.10
2018-09-12T09:16:07.332Z,72.05
2018-09-12T09:17:07.333Z,71.76
2018-09-12T09:18:07.338Z,72.05
2018-09-12T09:19:07.341Z,72.05
2018-09-12T09:20:07.344Z,72.81
2018-09-12T09:21:07.347Z,72.53
2018-09-12T09:22:07.351Z,72.43
2018-09-12T09:23:07.355Z,72.81
2018-09-12T09:24:07.357Z,72.95
2018-09-12T09:25:07.360Z,72.85
2018-09-12T09:26:07.364Z,72.63
2018-09-12T09:27:07.367Z,73.10
2018-09-12T09:28:07.371Z,72.56
2018-09-12T09:29:07.373Z,72.91
2018-09-12T09:30:07.378Z,72.63
2018-09-12T09:31:07.378Z,72.81
2018-09-12T09:32:07.382Z,72.91
2018-09-12T09:33:07.384Z,71.95
2018-09-12T09:34:07.389Z,72.05
2018-09-12T09:35:07.463Z,71.85
2018-09-12T09:36:07.394Z,72.91
2018-09-12T09:37:07.398Z,73.49
2018-09-12T09:38:07.400Z,73.39
2018-09-12T09:39:07.404Z,73.62
2018-09-12T09:40:07.407Z,73.72
2018-09-12T09:41:07.467Z,74.58
2018-09-12T09:42:07.414Z,75.16
2018-09-12T09:43:07.416Z,75.93
2018-09-12T09:44:07.433Z,75.97
2018-09-12T09:45:07.422Z,76.84
2018-09-12T09:46:07.428Z,76.55
2018-09-12T09:47:07.428Z,77.51
2018-09-12T09:48:07.520Z,77.46
2018-09-12T09:49:07.440Z,78.42
2018-09-12T09:50:07.438Z,78.42
2018-09-12T09:51:07.442Z,77.36
2018-09-12T09:52:07.446Z,78.13
2018-09-12T09:53:07.449Z,78.03
2018-09-12T09:54:07.453Z,78.71
2018-09-12T09:55:07.501Z,79.19
2018-09-12T09:56:07.460Z,79.72
2018-09-12T09:57:07.463Z,80.68
2018-09-12T09:58:07.467Z,81.01
2018-09-12T09:59:07.473Z,80.72
2018-09-12T10:00:07.476Z,81.73
2018-09-12T10:01:07.480Z,81.20
2018-09-12T10:02:07.485Z,81.82
2018-09-12T10:03:07.489Z,80.43
2018-09-12T10:04:07.493Z,79.62
2018-09-12T10:05:07.497Z,80.49
2018-09-12T10:06:07.501Z,80.06
2018-09-12T10:07:07.505Z,79.49
2018-09-12T10:08:07.511Z,79.00
2018-09-12T10:09:07.514Z,79.58
2018-09-12T10:10:07.520Z,78.77
2018-09-12T10:11:07.524Z,78.38
2018-09-12T10:12:07.528Z,78.58
2018-09-12T10:13:07.533Z,78.54
2018-09-12T10:14:07.538Z,76.63
2018-09-12T10:15:07.540Z,75.05
2018-09-12T10:16:07.546Z,72.13
2018-09-12T10:17:07.550Z,69.98
2018-09-12T10:18:07.553Z,70.07
2018-09-12T10:19:07.558Z,68.70
2018-09-12T10:20:07.562Z,67.35
2018-09-12T10:21:07.565Z,65.11
2018-09-12T10:22:07.570Z,65.88
2018-09-12T10:23:07.576Z,66.03
2018-09-12T10:24:07.632Z,65.84
2018-09-12T10:25:07.579Z,65.17
2018-09-12T10:26:07.584Z,65.94
2018-09-12T10:27:07.585Z,65.65
2018-09-12T10:28:07.589Z,67.38
2018-09-12T10:29:07.591Z,66.61
2018-09-12T10:30:07.594Z,66.52
2018-09-12T10:31:07.597Z,65.75
2018-09-12T10:32:07.599Z,66.23
2018-09-12T10:33:07.602Z,66.13
2018-09-12T10:34:07.606Z,65.94
2018-09-12T10:35:07.607Z,66.52
2018-09-12T10:36:07.610Z,66.42
2018-09-12T10:37:07.611Z,66.23
2018-09-12T10:38:07.613Z,65.46
2018-09-12T10:39:07.616Z,65.84
2018-09-12T10:40:07.618Z,65.56
2018-09-12T10:41:07.696Z,65.56
2018-09-12T10:42:07.622Z,65.05
2018-09-12T10:43:07.624Z,64.85
2018-09-12T10:44:07.676Z,64.56
2018-09-12T10:45:07.627Z,64.47
2018-09-12T10:46:07.630Z,64.09
2018-09-12T10:47:07.631Z,64.09
2018-09-12T10:48:07.633Z,62.65
2018-09-12T10:49:07.634Z,62.65
2018-09-12T10:50:07.635Z,62.74
2018-09-12T10:51:07.637Z,62.65
2018-09-12T10:52:07.642Z,63.12
2018-09-12T10:53:07.641Z,63.51
2018-09-12T10:54:07.642Z,64.37
2018-09-12T10:55:07.645Z,64.37
2018-09-12T10:56:07.647Z,64.98
2018-09-12T10:57:07.646Z,65.27
2018-09-12T10:58:07.649Z,65.94
2018-09-12T10:59:07.676Z,66.33
2018-09-12T11:00:07.651Z,66.52
2018-09-12T11:01:07.653Z,66.90
2018-09-12T11:02:07.653Z,67.47
2018-09-12T11:03:07.654Z,67.19
2018-09-12T11:04:07.655Z,66.39
2018-09-12T11:05:07.658Z,66.13
2018-09-12T11:06:07.658Z,66.00
2018-09-12T11:07:07.664Z,66.52
2018-09-12T11:08:07.661Z,67.19
2018-09-12T11:09:07.662Z,66.90
2018-09-12T11:10:07.664Z,67.67
2018-09-12T11:11:07.666Z,67.86
2018-09-12T11:12:07.666Z,67.19
2018-09-12T11:13:07.667Z,66.80
2018-09-12T11:14:07.672Z,67.19
2018-09-12T11:15:07.710Z,66.03
2018-09-12T11:16:07.672Z,65.43
2018-09-12T11:17:07.677Z,65.81
2018-09-12T11:18:07.701Z,65.27
2018-09-12T11:19:07.677Z,64.66
2018-09-12T11:20:07.681Z,63.42
2018-09-12T11:21:07.679Z,62.74
2018-09-12T11:22:07.680Z,62.36
2018-09-12T11:23:07.681Z,63.51
2018-09-12T11:24:07.686Z,62.74
2018-09-12T11:25:07.684Z,63.45
2018-09-12T11:26:07.687Z,63.42
2018-09-12T11:27:07.687Z,63.22
2018-09-12T11:28:07.689Z,63.83
2018-09-12T11:29:07.689Z,63.12
2018-09-12T11:30:07.691Z,61.88
2018-09-12T11:31:07.691Z,62.74
2018-09-12T11:32:07.694Z,62.55
2018-09-12T11:33:07.694Z,63.12
2018-09-12T11:34:07.747Z,63.12
2018-09-12T11:35:07.697Z,62.36
2018-09-12T11:36:07.697Z,62.16
2018-09-12T11:37:07.698Z,63.03
2018-09-12T11:38:07.699Z,63.89
2018-09-12T11:39:07.702Z,63.79
2018-09-12T11:40:07.736Z,61.78
2018-09-12T11:41:07.703Z,61.21
2018-09-12T11:42:07.703Z,61.59
2018-09-12T11:43:07.706Z,61.75
2018-09-12T11:44:07.707Z,61.27
2018-09-12T11:45:07.708Z,61.66
2018-09-12T11:46:07.709Z,61.66
2018-09-12T11:47:07.711Z,61.75
2018-09-12T11:48:07.711Z,61.27
2018-09-12T11:49:07.794Z,60.70
2018-09-12T11:50:07.714Z,60.99
2018-09-12T11:51:07.714Z,61.56
2018-09-12T11:52:07.719Z,60.99
2018-09-12T11:53:07.718Z,60.99
2018-09-12T11:54:07.720Z,61.66
2018-09-12T11:55:07.717Z,61.85
2018-09-12T11:56:07.719Z,62.04
2018-09-12T11:57:07.719Z,62.23
2018-09-12T11:58:07.720Z,61.56
2018-09-12T11:59:07.721Z,61.37
2018-09-12T12:00:07.722Z,61.46
2018-09-12T12:01:07.723Z,62.23
2018-09-12T12:02:07.771Z,63.00
2018-09-12T12:03:07.725Z,62.90
2018-09-12T12:04:07.726Z,62.81
2018-09-12T12:05:07.724Z,62.52
2018-09-12T12:06:07.731Z,61.66
2018-09-12T12:07:07.726Z,62.52
2018-09-12T12:08:07.729Z,62.71
2018-09-12T12:09:07.727Z,62.52
2018-09-12T12:10:07.730Z,62.33
2018-09-12T12:11:07.729Z,62.33
2018-09-12T12:12:07.732Z,62.71
2018-09-12T12:13:07.730Z,63.09
2018-09-12T12:14:07.735Z,62.71
2018-09-12T12:15:07.732Z,63.00
2018-09-12T12:16:07.732Z,62.62
2018-09-12T12:17:07.733Z,62.04
2018-09-12T12:18:07.732Z,61.27
2018-09-12T12:19:07.734Z,61.56
2018-09-12T12:20:07.736Z,61.94
2018-09-12T12:21:07.735Z,60.89
2018-09-12T12:22:07.736Z,60.31
2018-09-12T12:23:07.754Z,61.08
2018-09-12T12:24:07.738Z,59.23
2018-09-12T12:25:07.738Z,58.17
2018-09-12T12:26:07.738Z,56.83
2018-09-12T12:27:07.740Z,56.83
2018-09-12T12:28:07.740Z,55.49
2018-09-12T12:29:07.740Z,55.11
2018-09-12T12:30:07.741Z,55.30
2018-09-12T12:31:07.741Z,55.21
2018-09-12T12:32:07.793Z,55.01
2018-09-12T12:33:07.742Z,54.91
2018-09-12T12:34:07.742Z,54.79
2018-09-12T12:35:07.741Z,55.08
2018-09-12T12:36:07.745Z,55.65
2018-09-12T12:37:07.743Z,55.65
2018-09-12T12:38:07.741Z,55.75
2018-09-12T12:39:07.742Z,55.46
2018-09-12T12:40:07.743Z,55.75
2018-09-12T12:41:07.779Z,55.08
2018-09-12T12:42:07.742Z,54.89
2018-09-12T12:43:07.742Z,54.89
2018-09-12T12:44:07.743Z,54.99
2018-09-12T12:45:07.743Z,55.08
2018-09-12T12:46:07.743Z,54.99
2018-09-12T12:47:07.743Z,55.27
2018-09-12T12:48:07.745Z,55.01
2018-09-12T12:49:07.743Z,54.82
2018-09-12T12:50:07.743Z,55.01
2018-09-12T12:51:07.744Z,54.91
2018-09-12T12:52:07.745Z,54.41